createdAt,value
2022-08-16T00:00:20.262Z,6.40
2022-08-16T00:01:13.068Z,5.38
2022-08-16T00:02:12.866Z,6.04
2022-08-16T00:03:13.293Z,4.64
2022-08-16T00:04:11.063Z,5.58
2022-08-16T00:05:11.070Z,5.64
2022-08-16T00:06:11.068Z,5.30
2022-08-16T00:07:11.067Z,5.52
2022-08-16T00:08:11.067Z,5.70
2022-08-16T00:09:13.090Z,5.78
2022-08-16T00:10:20.860Z,5.04
2022-08-16T00:11:15.284Z,6.26
2022-08-16T00:12:11.068Z,6.98
2022-08-16T00:13:13.091Z,5.52
2022-08-16T00:14:12.068Z,6.02
2022-08-16T00:15:17.091Z,6.14
2022-08-16T00:17:00.776Z,6.52
2022-08-16T00:17:18.246Z,6.42
2022-08-16T00:18:13.086Z,6.34
2022-08-16T00:19:13.619Z,5.26
2022-08-16T00:20:12.402Z,5.86
2022-08-16T00:21:11.058Z,5.44
2022-08-16T00:22:13.439Z,5.46
2022-08-16T00:23:11.058Z,5.04
2022-08-16T00:24:11.560Z,5.64
2022-08-16T00:25:12.053Z,5.94
2022-08-16T00:26:35.652Z,5.86
2022-08-16T00:27:13.075Z,6.16
2022-08-16T00:28:11.172Z,6.88
2022-08-16T00:29:11.117Z,6.76
2022-08-16T00:30:25.036Z,5.80
2022-08-16T00:31:13.066Z,5.64
2022-08-16T00:32:11.211Z,6.60
2022-08-16T00:33:11.064Z,6.86
2022-08-16T00:34:18.137Z,6.86
2022-08-16T00:35:15.477Z,6.92
2022-08-16T00:36:11.066Z,6.58
2022-08-16T00:37:11.083Z,7.90
2022-08-16T00:38:40.941Z,6.28
2022-08-16T00:39:15.529Z,6.08
2022-08-16T00:40:34.467Z,7.26
2022-08-16T00:41:13.084Z,6.90
2022-08-16T00:42:11.059Z,6.68
2022-08-16T00:43:19.345Z,6.64
2022-08-16T00:44:15.057Z,6.72
2022-08-16T00:45:17.060Z,5.72
2022-08-16T00:46:33.067Z,5.38
2022-08-16T00:47:18.085Z,6.92
2022-08-16T00:48:30.745Z,5.46
2022-08-16T00:49:18.990Z,6.70
2022-08-16T00:50:13.071Z,5.52
2022-08-16T00:51:11.067Z,6.08
2022-08-16T00:52:29.220Z,5.84
2022-08-16T00:53:14.085Z,6.32
2022-08-16T00:54:11.660Z,6.66
2022-08-16T00:55:11.063Z,5.76
2022-08-16T00:56:12.063Z,5.96
2022-08-16T00:57:13.082Z,6.60
2022-08-16T00:58:13.246Z,5.94
2022-08-16T00:59:15.175Z,5.30
2022-08-16T01:00:11.064Z,6.78
2022-08-16T01:01:13.151Z,6.26
2022-08-16T01:02:30.275Z,6.24
2022-08-16T01:03:14.064Z,6.40
2022-08-16T01:04:28.923Z,6.00
2022-08-16T01:05:13.089Z,5.78
2022-08-16T01:06:39.984Z,5.66
2022-08-16T01:07:13.075Z,5.30
2022-08-16T01:08:34.845Z,5.72
2022-08-16T01:09:13.060Z,6.14
2022-08-16T01:10:16.114Z,6.14
2022-08-16T01:11:13.358Z,5.56
2022-08-16T01:12:11.071Z,5.68
2022-08-16T01:13:15.871Z,6.22
2022-08-16T01:14:20.119Z,5.24
2022-08-16T01:15:13.343Z,6.84
2022-08-16T01:16:19.962Z,5.94
2022-08-16T01:17:13.082Z,7.42
2022-08-16T01:18:39.918Z,7.26
2022-08-16T01:19:21.080Z,8.52
2022-08-16T01:20:24.010Z,7.36
2022-08-16T01:21:22.340Z,7.42
2022-08-16T01:22:49.905Z,8.26
2022-08-16T01:23:19.089Z,6.82
2022-08-16T01:24:51.688Z,7.30
2022-08-16T01:25:19.057Z,7.68
2022-08-16T01:26:34.081Z,7.58
2022-08-16T01:27:22.069Z,6.86
2022-08-16T01:28:19.688Z,7.28
2022-08-16T01:29:13.053Z,7.62
2022-08-16T01:30:19.308Z,6.94
2022-08-16T01:31:12.062Z,7.34
2022-08-16T01:32:11.053Z,7.74
2022-08-16T01:33:15.310Z,7.34
2022-08-16T01:34:22.997Z,8.84
2022-08-16T01:35:23.069Z,7.76
2022-08-16T01:36:12.411Z,7.10
2022-08-16T01:37:11.052Z,7.76
2022-08-16T01:38:19.436Z,7.88
2022-08-16T01:39:15.055Z,6.90
2022-08-16T01:40:11.054Z,7.04
2022-08-16T01:41:19.066Z,6.52
2022-08-16T01:42:12.967Z,8.12
2022-08-16T01:43:12.054Z,8.12
2022-08-16T01:44:11.056Z,7.50
2022-08-16T01:45:11.058Z,8.26
2022-08-16T01:46:29.815Z,8.62
2022-08-16T01:47:13.086Z,7.62
2022-08-16T01:48:19.764Z,7.56
2022-08-16T01:49:22.082Z,7.14
2022-08-16T01:50:43.556Z,7.86
2022-08-16T01:51:17.145Z,7.70
2022-08-16T01:52:28.006Z,7.20
2022-08-16T01:53:13.082Z,6.46
2022-08-16T01:54:11.059Z,7.72
2022-08-16T01:55:11.054Z,7.72
2022-08-16T01:56:23.545Z,7.88
2022-08-16T01:57:13.350Z,6.96
2022-08-16T01:58:12.341Z,6.38
2022-08-16T01:59:15.805Z,6.88
2022-08-16T02:00:19.419Z,6.76
2022-08-16T02:01:13.339Z,6.84
2022-08-16T02:02:22.273Z,7.42
2022-08-16T02:03:13.076Z,7.30
2022-08-16T02:04:11.627Z,7.64
2022-08-16T02:05:11.058Z,7.36
2022-08-16T02:06:11.060Z,8.38
2022-08-16T02:07:12.061Z,7.66
2022-08-16T02:08:33.605Z,8.72
2022-08-16T02:09:13.091Z,7.60
2022-08-16T02:10:11.069Z,8.14
2022-08-16T02:11:11.062Z,7.28
2022-08-16T02:12:51.629Z,8.26
2022-08-16T02:13:13.071Z,6.90
2022-08-16T02:14:18.134Z,8.12
2022-08-16T02:15:13.072Z,8.12
2022-08-16T02:16:18.330Z,8.32
2022-08-16T02:17:13.076Z,7.54
2022-08-16T02:18:12.580Z,8.58
2022-08-16T02:19:16.042Z,7.54
2022-08-16T02:20:13.074Z,7.76
2022-08-16T02:21:11.057Z,7.68
2022-08-16T02:22:34.217Z,8.06
2022-08-16T02:23:13.098Z,8.52
2022-08-16T02:24:17.572Z,9.00
2022-08-16T02:25:14.999Z,8.40
2022-08-16T02:26:11.057Z,8.10
2022-08-16T02:27:13.069Z,9.16
2022-08-16T02:28:11.060Z,11.04
2022-08-16T02:29:13.037Z,9.24
2022-08-16T02:30:35.824Z,8.84
2022-08-16T02:31:13.079Z,9.70
2022-08-16T02:32:49.877Z,8.94
2022-08-16T02:33:13.064Z,8.62
2022-08-16T02:34:11.058Z,7.14
2022-08-16T02:35:11.062Z,7.78
2022-08-16T02:36:14.509Z,8.24
2022-08-16T02:37:13.081Z,10.36
2022-08-16T02:38:13.078Z,10.32
2022-08-16T02:39:11.077Z,10.12
2022-08-16T02:40:11.066Z,9.44
2022-08-16T02:41:12.092Z,10.20
2022-08-16T02:42:11.062Z,9.56
2022-08-16T02:43:11.058Z,8.76
2022-08-16T02:44:13.602Z,9.34
2022-08-16T02:45:11.069Z,9.96
2022-08-16T02:46:11.096Z,9.24
2022-08-16T02:47:11.062Z,10.16
2022-08-16T02:48:28.554Z,10.00
2022-08-16T02:49:13.067Z,9.52
2022-08-16T02:50:55.187Z,9.42
2022-08-16T02:51:13.051Z,9.20
2022-08-16T02:52:11.073Z,10.86
2022-08-16T02:53:13.064Z,11.42
2022-08-16T02:54:11.060Z,10.42
2022-08-16T02:55:11.072Z,10.96
2022-08-16T02:56:11.069Z,11.68
2022-08-16T02:57:11.063Z,12.84
2022-08-16T02:58:11.058Z,11.64
2022-08-16T02:59:11.799Z,10.96
2022-08-16T03:00:33.800Z,9.82
2022-08-16T03:01:25.310Z,9.40
2022-08-16T03:02:13.123Z,9.46
2022-08-16T03:03:11.063Z,9.60
2022-08-16T03:04:41.499Z,9.98
2022-08-16T03:05:13.074Z,11.20
2022-08-16T03:06:41.565Z,11.36
2022-08-16T03:07:13.084Z,14.44
2022-08-16T03:08:51.897Z,13.78
2022-08-16T03:09:14.015Z,15.56
2022-08-16T03:10:11.068Z,15.70
2022-08-16T03:11:16.519Z,15.98
2022-08-16T03:12:16.290Z,16.56
2022-08-16T03:13:12.490Z,16.56
2022-08-16T03:14:11.577Z,16.90
2022-08-16T03:15:12.073Z,15.64
2022-08-16T03:16:32.802Z,17.10
2022-08-16T03:17:13.094Z,14.34
2022-08-16T03:18:12.622Z,15.04
2022-08-16T03:19:13.074Z,13.76
2022-08-16T03:20:11.894Z,12.78
2022-08-16T03:21:11.055Z,12.96
2022-08-16T03:22:11.057Z,11.94
2022-08-16T03:23:13.075Z,11.56
2022-08-16T03:24:28.110Z,14.16
2022-08-16T03:25:14.056Z,13.40
2022-08-16T03:26:11.058Z,13.66
2022-08-16T03:27:11.053Z,15.02
2022-08-16T03:28:11.070Z,15.12
2022-08-16T03:29:11.057Z,14.48
2022-08-16T03:30:15.264Z,16.62
2022-08-16T03:31:11.057Z,17.54
2022-08-16T03:32:11.059Z,16.98
2022-08-16T03:33:11.058Z,16.76
2022-08-16T03:34:11.060Z,16.98
2022-08-16T03:35:11.060Z,17.88
2022-08-16T03:36:30.284Z,19.64
2022-08-16T03:37:13.104Z,20.06
2022-08-16T03:38:33.427Z,21.38
2022-08-16T03:39:15.114Z,22.84
2022-08-16T03:40:23.213Z,21.16
2022-08-16T03:41:17.108Z,23.64
2022-08-16T03:42:20.480Z,22.66
2022-08-16T03:43:20.345Z,26.36
2022-08-16T03:44:13.069Z,26.68
2022-08-16T03:45:13.062Z,25.54
2022-08-16T03:46:11.060Z,23.32
2022-08-16T03:47:11.066Z,24.30
2022-08-16T03:48:15.105Z,22.62
2022-08-16T03:49:15.077Z,22.24
2022-08-16T03:50:26.146Z,23.98
2022-08-16T03:51:14.069Z,23.36
2022-08-16T03:52:11.058Z,23.48
2022-08-16T03:53:11.058Z,22.04
2022-08-16T03:54:12.343Z,24.46
2022-08-16T03:55:14.731Z,21.00
2022-08-16T03:56:20.007Z,24.72
2022-08-16T03:57:15.680Z,24.30
2022-08-16T03:58:11.070Z,22.58
2022-08-16T03:59:11.063Z,21.94
2022-08-16T04:00:20.632Z,23.54
2022-08-16T04:01:13.120Z,23.08
2022-08-16T04:02:22.283Z,21.90
2022-08-16T04:03:14.090Z,20.90
2022-08-16T04:04:11.062Z,21.58
2022-08-16T04:05:13.074Z,20.92
2022-08-16T04:06:11.072Z,23.98
2022-08-16T04:07:11.062Z,26.52
2022-08-16T04:08:23.666Z,30.58
2022-08-16T04:09:13.094Z,28.18
2022-08-16T04:10:36.351Z,31.48
2022-08-16T04:11:16.525Z,31.48
2022-08-16T04:12:54.536Z,30.46
2022-08-16T04:13:20.678Z,33.66
2022-08-16T04:14:30.862Z,33.00
2022-08-16T04:15:13.551Z,33.38
2022-08-16T04:16:26.633Z,33.02
2022-08-16T04:17:13.064Z,34.64
2022-08-16T04:18:11.066Z,34.42
2022-08-16T04:19:11.067Z,32.84
2022-08-16T04:20:13.175Z,32.28
2022-08-16T04:21:13.095Z,33.64
2022-08-16T04:22:13.075Z,35.18
2022-08-16T04:23:11.057Z,34.48
2022-08-16T04:24:11.056Z,35.70
2022-08-16T04:25:11.059Z,33.78
2022-08-16T04:26:17.027Z,37.04
2022-08-16T04:27:13.086Z,35.80
2022-08-16T04:28:51.769Z,36.28
2022-08-16T04:29:18.280Z,33.96
2022-08-16T04:30:14.070Z,37.96
2022-08-16T04:31:13.070Z,36.38
2022-08-16T04:32:11.061Z,39.08
2022-08-16T04:33:11.056Z,35.46
2022-08-16T04:34:11.059Z,35.42
2022-08-16T04:35:16.210Z,37.80
2022-08-16T04:36:11.058Z,38.94
2022-08-16T04:37:13.071Z,36.08
2022-08-16T04:38:21.132Z,37.40
2022-08-16T04:39:13.063Z,37.94
2022-08-16T04:40:11.096Z,40.76
2022-08-16T04:41:13.068Z,38.50
2022-08-16T04:42:11.758Z,38.16
2022-08-16T04:43:11.061Z,38.80
2022-08-16T04:44:32.614Z,36.50
2022-08-16T04:45:13.077Z,40.34
2022-08-16T04:47:00.095Z,39.12
2022-08-16T04:47:21.822Z,39.74
2022-08-16T04:48:21.685Z,38.66
2022-08-16T04:49:13.068Z,41.98
2022-08-16T04:50:18.189Z,37.44
2022-08-16T04:51:11.928Z,39.54
2022-08-16T04:52:33.134Z,41.72
2022-08-16T04:53:13.062Z,40.36
2022-08-16T04:54:11.064Z,38.74
2022-08-16T04:55:11.907Z,38.16
2022-08-16T04:56:11.830Z,36.98
2022-08-16T04:57:11.060Z,37.50
2022-08-16T04:58:44.058Z,40.24
2022-08-16T04:59:13.061Z,40.12
2022-08-16T05:00:30.798Z,38.00
2022-08-16T05:01:13.063Z,39.10
2022-08-16T05:02:42.231Z,38.90
2022-08-16T05:03:13.155Z,40.92
2022-08-16T05:04:19.763Z,38.18
2022-08-16T05:05:17.248Z,41.22
2022-08-16T05:06:11.066Z,38.84
2022-08-16T05:07:15.006Z,37.74
2022-08-16T05:08:28.176Z,41.70
2022-08-16T05:09:13.068Z,37.30
2022-08-16T05:10:19.997Z,38.90
2022-08-16T05:11:14.093Z,40.82
2022-08-16T05:12:11.294Z,35.24
2022-08-16T05:13:15.503Z,38.92
2022-08-16T05:14:11.069Z,36.42
2022-08-16T05:15:13.072Z,37.12
2022-08-16T05:16:11.883Z,37.20
2022-08-16T05:17:13.092Z,35.58
2022-08-16T05:18:15.967Z,34.70
2022-08-16T05:19:16.298Z,36.36
2022-08-16T05:20:39.552Z,34.86
2022-08-16T05:21:13.069Z,34.86
2022-08-16T05:22:18.044Z,36.76
2022-08-16T05:23:13.746Z,33.84
2022-08-16T05:24:11.096Z,35.92
2022-08-16T05:25:11.057Z,33.40
2022-08-16T05:26:20.023Z,36.20
2022-08-16T05:27:13.068Z,34.22
2022-08-16T05:28:11.058Z,33.66
2022-08-16T05:29:14.685Z,33.26
2022-08-16T05:30:35.792Z,35.54
2022-08-16T05:31:13.082Z,31.54
2022-08-16T05:32:32.257Z,36.14
2022-08-16T05:33:16.904Z,32.86
2022-08-16T05:34:20.043Z,35.40
2022-08-16T05:35:13.063Z,34.92
2022-08-16T05:36:14.574Z,35.10
2022-08-16T05:37:14.660Z,34.22
2022-08-16T05:38:32.354Z,33.46
2022-08-16T05:39:13.064Z,34.18
2022-08-16T05:40:13.183Z,33.72
2022-08-16T05:41:11.060Z,33.40
2022-08-16T05:42:11.062Z,32.26
2022-08-16T05:43:11.973Z,30.08
2022-08-16T05:44:24.134Z,32.44
2022-08-16T05:45:13.115Z,32.44
2022-08-16T05:46:31.023Z,33.04
2022-08-16T05:47:15.097Z,31.58
2022-08-16T05:48:11.061Z,30.56
2022-08-16T05:49:11.062Z,33.22
2022-08-16T05:50:19.240Z,30.74
2022-08-16T05:51:13.077Z,31.12
2022-08-16T05:52:13.649Z,30.78
2022-08-16T05:53:11.064Z,30.56
2022-08-16T05:54:11.582Z,30.00
2022-08-16T05:55:11.063Z,29.90
2022-08-16T05:56:11.063Z,30.40
2022-08-16T05:57:13.538Z,30.58
2022-08-16T05:58:20.032Z,31.56
2022-08-16T05:59:13.083Z,31.72
2022-08-16T06:00:11.067Z,31.14
2022-08-16T06:01:11.165Z,30.98
2022-08-16T06:02:11.070Z,30.20
2022-08-16T06:03:12.968Z,30.30
2022-08-16T06:04:13.062Z,28.74
2022-08-16T06:05:11.165Z,32.42
2022-08-16T06:06:11.065Z,32.56
2022-08-16T06:07:24.390Z,31.06
2022-08-16T06:08:32.005Z,32.04
2022-08-16T06:09:13.070Z,31.26
2022-08-16T06:10:11.066Z,32.08
2022-08-16T06:11:11.403Z,30.48
2022-08-16T06:12:11.063Z,28.90
2022-08-16T06:13:11.067Z,30.04
2022-08-16T06:14:11.064Z,30.24
2022-08-16T06:15:16.478Z,29.72
2022-08-16T06:16:18.201Z,29.34
2022-08-16T06:17:15.199Z,31.06
2022-08-16T06:18:11.072Z,27.32
2022-08-16T06:19:11.066Z,27.22
2022-08-16T06:20:11.070Z,28.16
2022-08-16T06:21:11.057Z,27.36
2022-08-16T06:22:11.059Z,27.10
2022-08-16T06:23:17.407Z,28.20
2022-08-16T06:24:54.671Z,26.72
2022-08-16T06:25:13.330Z,24.04
2022-08-16T06:26:11.060Z,26.86
2022-08-16T06:27:11.060Z,23.30
2022-08-16T06:28:17.034Z,26.28
2022-08-16T06:29:13.094Z,25.70
2022-08-16T06:30:11.067Z,24.96
2022-08-16T06:31:12.191Z,24.94
2022-08-16T06:32:11.071Z,25.52
2022-08-16T06:33:13.057Z,23.52
2022-08-16T06:34:53.212Z,24.66
2022-08-16T06:35:13.069Z,25.68
2022-08-16T06:36:14.113Z,25.44
2022-08-16T06:37:11.066Z,25.80
2022-08-16T06:38:34.103Z,26.82
2022-08-16T06:39:13.342Z,25.54
2022-08-16T06:40:13.088Z,26.44
2022-08-16T06:41:13.488Z,26.42
2022-08-16T06:42:11.060Z,26.88
2022-08-16T06:43:11.061Z,24.88
2022-08-16T06:44:20.649Z,26.38
2022-08-16T06:45:13.084Z,25.78
2022-08-16T06:46:15.063Z,27.70
2022-08-16T06:47:11.065Z,26.12
2022-08-16T06:48:13.078Z,26.60
2022-08-16T06:49:13.070Z,28.20
2022-08-16T06:50:11.058Z,27.40
2022-08-16T06:51:14.851Z,27.56
2022-08-16T06:52:57.299Z,29.50
2022-08-16T06:53:15.113Z,28.86
2022-08-16T06:54:13.929Z,29.76
2022-08-16T06:55:13.046Z,30.46
2022-08-16T06:56:14.747Z,30.94
2022-08-16T06:57:16.658Z,29.32
2022-08-16T06:58:21.949Z,30.24
2022-08-16T06:59:13.088Z,27.82
2022-08-16T07:00:24.678Z,29.00
2022-08-16T07:01:15.812Z,30.44
2022-08-16T07:02:33.342Z,29.22
2022-08-16T07:03:26.419Z,31.40
2022-08-16T07:04:13.070Z,25.82
2022-08-16T07:05:15.207Z,31.08
2022-08-16T07:06:11.453Z,30.36
2022-08-16T07:07:11.066Z,30.60
2022-08-16T07:08:11.417Z,30.56
2022-08-16T07:09:11.067Z,28.74
2022-08-16T07:10:11.073Z,29.24
2022-08-16T07:11:11.079Z,28.30
2022-08-16T07:12:11.068Z,27.46
2022-08-16T07:13:11.877Z,24.92
2022-08-16T07:14:24.222Z,28.86
2022-08-16T07:15:18.780Z,28.14
2022-08-16T07:16:14.093Z,25.04
2022-08-16T07:17:12.943Z,27.10
2022-08-16T07:18:11.066Z,26.00
2022-08-16T07:19:12.069Z,26.38
2022-08-16T07:20:30.741Z,28.92
2022-08-16T07:21:13.111Z,27.28
2022-08-16T07:22:37.425Z,28.18
2022-08-16T07:23:13.621Z,27.30
2022-08-16T07:24:11.067Z,27.42
2022-08-16T07:25:17.237Z,28.62
2022-08-16T07:26:14.421Z,26.54
2022-08-16T07:27:13.080Z,27.34
2022-08-16T07:28:20.907Z,26.40
2022-08-16T07:29:13.072Z,26.26
2022-08-16T07:30:39.396Z,26.20
2022-08-16T07:31:14.247Z,26.10
2022-08-16T07:32:11.062Z,26.08
2022-08-16T07:33:11.058Z,25.18
2022-08-16T07:34:13.109Z,25.88
2022-08-16T07:35:11.068Z,27.86
2022-08-16T07:36:11.065Z,23.56
2022-08-16T07:37:11.061Z,23.02
2022-08-16T07:38:11.068Z,25.18
2022-08-16T07:39:11.063Z,24.70
2022-08-16T07:40:12.792Z,26.28
2022-08-16T07:41:11.237Z,23.16
2022-08-16T07:42:11.071Z,23.48
2022-08-16T07:43:13.090Z,22.74
2022-08-16T07:44:16.578Z,23.64
2022-08-16T07:45:13.344Z,21.54
2022-08-16T07:46:37.762Z,23.68
2022-08-16T07:47:13.334Z,22.84
2022-08-16T07:48:12.503Z,21.96
2022-08-16T07:49:11.423Z,22.80
2022-08-16T07:50:57.807Z,21.80
2022-08-16T07:51:13.086Z,21.76
2022-08-16T07:52:18.666Z,22.64
2022-08-16T07:53:13.072Z,20.86
2022-08-16T07:54:20.604Z,22.26
2022-08-16T07:55:13.077Z,20.24
2022-08-16T07:56:11.071Z,21.08
2022-08-16T07:57:11.391Z,22.36
2022-08-16T07:58:11.061Z,23.30
2022-08-16T07:59:13.761Z,21.88
2022-08-16T08:00:18.487Z,20.30
2022-08-16T08:01:13.295Z,20.24
2022-08-16T08:02:11.902Z,20.54
2022-08-16T08:03:11.073Z,21.16
2022-08-16T08:04:13.056Z,22.68
2022-08-16T08:05:11.064Z,19.28
2022-08-16T08:06:11.881Z,19.44
2022-08-16T08:07:11.101Z,19.04
2022-08-16T08:08:11.631Z,19.06
2022-08-16T08:09:13.112Z,19.24
2022-08-16T08:10:11.688Z,17.98
2022-08-16T08:11:11.066Z,20.30
2022-08-16T08:12:32.335Z,19.86
2022-08-16T08:13:13.091Z,19.94
2022-08-16T08:14:11.069Z,20.28
2022-08-16T08:15:13.085Z,18.42
2022-08-16T08:16:19.054Z,18.58
2022-08-16T08:17:13.093Z,19.66
2022-08-16T08:18:29.198Z,18.94
2022-08-16T08:19:15.335Z,19.26
2022-08-16T08:20:12.076Z,17.80
2022-08-16T08:21:11.060Z,17.46
2022-08-16T08:22:19.462Z,16.50
2022-08-16T08:23:13.080Z,15.68
2022-08-16T08:24:11.061Z,18.12
2022-08-16T08:25:12.960Z,19.36
2022-08-16T08:26:17.691Z,18.36
2022-08-16T08:27:13.076Z,16.70
2022-08-16T08:28:13.064Z,17.04
2022-08-16T08:29:12.002Z,17.06
2022-08-16T08:30:51.832Z,16.86
2022-08-16T08:31:17.126Z,18.42
2022-08-16T08:32:58.663Z,18.30
2022-08-16T08:33:13.064Z,17.08
2022-08-16T08:34:12.768Z,16.82
2022-08-16T08:35:11.069Z,17.66
2022-08-16T08:36:11.059Z,18.76
2022-08-16T08:37:13.340Z,17.14
2022-08-16T08:38:13.064Z,16.60
2022-08-16T08:39:13.200Z,16.16
2022-08-16T08:40:11.129Z,17.36
2022-08-16T08:41:12.062Z,17.08
2022-08-16T08:42:11.064Z,17.04
2022-08-16T08:43:18.424Z,17.58
2022-08-16T08:44:29.228Z,16.96
2022-08-16T08:45:29.776Z,18.16
2022-08-16T08:46:18.083Z,18.44
2022-08-16T08:47:13.080Z,18.64
2022-08-16T08:48:11.065Z,19.66
2022-08-16T08:49:13.074Z,18.84
2022-08-16T08:50:11.064Z,18.32
2022-08-16T08:51:11.130Z,18.36
2022-08-16T08:52:11.066Z,17.16
2022-08-16T08:53:13.357Z,19.38
2022-08-16T08:54:11.064Z,19.18
2022-08-16T08:55:12.680Z,19.02
2022-08-16T08:56:23.104Z,18.38
2022-08-16T08:57:13.082Z,18.68
2022-08-16T08:58:11.067Z,18.10
2022-08-16T08:59:12.975Z,18.84
2022-08-16T09:00:17.172Z,20.04
2022-08-16T09:01:11.066Z,16.60
2022-08-16T09:02:12.065Z,18.88
2022-08-16T09:03:11.068Z,18.76
2022-08-16T09:04:14.738Z,19.16
2022-08-16T09:05:15.585Z,18.06
2022-08-16T09:06:11.073Z,17.82
2022-08-16T09:07:13.082Z,15.32
2022-08-16T09:08:11.065Z,13.84
2022-08-16T09:09:17.085Z,16.40
2022-08-16T09:10:20.695Z,14.74
2022-08-16T09:11:18.447Z,15.02
2022-08-16T09:12:36.358Z,17.44
2022-08-16T09:13:13.073Z,15.70
2022-08-16T09:14:23.899Z,17.76
2022-08-16T09:15:13.466Z,16.32
2022-08-16T09:16:11.064Z,16.60
2022-08-16T09:17:31.580Z,16.24
2022-08-16T09:18:26.470Z,14.72
2022-08-16T09:19:13.087Z,15.20
2022-08-16T09:20:11.066Z,15.30
2022-08-16T09:21:11.059Z,16.98
2022-08-16T09:22:19.911Z,15.72
2022-08-16T09:23:13.344Z,17.54
2022-08-16T09:24:13.078Z,14.84
2022-08-16T09:25:14.720Z,16.00
2022-08-16T09:26:44.107Z,14.22
2022-08-16T09:27:13.054Z,15.68
2022-08-16T09:28:11.060Z,15.58
2022-08-16T09:29:16.974Z,17.38
2022-08-16T09:30:33.642Z,14.86
2022-08-16T09:31:13.058Z,15.84
2022-08-16T09:32:11.058Z,15.40
2022-08-16T09:33:11.062Z,15.04
2022-08-16T09:34:12.218Z,13.28
2022-08-16T09:35:11.059Z,13.96
2022-08-16T09:36:12.212Z,13.50
2022-08-16T09:37:17.923Z,12.92
2022-08-16T09:38:13.060Z,14.84
2022-08-16T09:39:16.360Z,14.60
2022-08-16T09:40:31.888Z,13.00
2022-08-16T09:41:14.610Z,12.34
2022-08-16T09:42:11.062Z,14.74
2022-08-16T09:43:21.104Z,12.28
2022-08-16T09:45:12.576Z,13.54
2022-08-16T09:45:18.246Z,15.30
2022-08-16T09:46:45.128Z,13.96
2022-08-16T09:47:13.062Z,13.64
2022-08-16T09:48:11.063Z,13.22
2022-08-16T09:49:13.348Z,13.28
2022-08-16T09:50:14.175Z,13.84
2022-08-16T09:51:16.060Z,13.34
2022-08-16T09:52:11.064Z,14.56
2022-08-16T09:53:15.261Z,15.40
2022-08-16T09:54:16.676Z,13.76
2022-08-16T09:55:13.092Z,13.56
2022-08-16T09:56:19.065Z,14.44
2022-08-16T09:57:12.150Z,12.44
2022-08-16T09:58:12.319Z,12.98
2022-08-16T09:59:13.123Z,13.46
2022-08-16T10:00:43.932Z,14.48
2022-08-16T10:01:13.127Z,14.34
2022-08-16T10:02:26.439Z,11.36
2022-08-16T10:03:13.165Z,11.26
2022-08-16T10:04:30.327Z,11.96
2022-08-16T10:05:13.130Z,12.36
2022-08-16T10:06:11.366Z,12.74
2022-08-16T10:07:15.252Z,12.22
2022-08-16T10:08:26.550Z,14.00
2022-08-16T10:09:13.070Z,13.12
2022-08-16T10:10:11.789Z,11.64
2022-08-16T10:11:15.071Z,13.68
2022-08-16T10:12:19.606Z,14.00
2022-08-16T10:13:16.251Z,11.00
2022-08-16T10:14:11.070Z,12.70
2022-08-16T10:15:15.398Z,11.22
2022-08-16T10:17:11.068Z,12.86
2022-08-16T10:18:56.147Z,13.56
2022-08-16T10:19:13.323Z,12.30
2022-08-16T10:20:18.386Z,11.36
2022-08-16T10:21:13.070Z,12.40
2022-08-16T10:22:12.841Z,11.54
2022-08-16T10:23:16.999Z,12.54
2022-08-16T10:24:13.058Z,12.32
2022-08-16T10:27:16.985Z,12.66
2022-08-16T10:27:20.025Z,12.72
2022-08-16T10:27:25.344Z,11.76
2022-08-16T10:28:28.474Z,13.34
2022-08-16T10:29:13.060Z,12.20
2022-08-16T10:30:24.753Z,12.64
2022-08-16T10:31:16.902Z,13.26
2022-08-16T10:32:13.124Z,12.18
2022-08-16T10:33:13.057Z,12.32
2022-08-16T10:34:31.241Z,13.36
2022-08-16T10:35:13.344Z,13.30
2022-08-16T10:36:13.065Z,11.30
2022-08-16T10:37:13.077Z,13.30
2022-08-16T10:38:11.064Z,10.92
2022-08-16T10:39:13.071Z,10.26
2022-08-16T10:40:28.544Z,11.52
2022-08-16T10:41:16.123Z,12.08
2022-08-16T10:42:13.489Z,11.32
2022-08-16T10:43:16.714Z,11.40
2022-08-16T10:44:13.067Z,12.86
2022-08-16T10:45:11.062Z,10.42
2022-08-16T10:46:40.149Z,10.50
2022-08-16T10:47:13.086Z,10.62
2022-08-16T10:48:27.565Z,9.62
2022-08-16T10:49:13.081Z,10.48
2022-08-16T10:50:18.897Z,10.36
2022-08-16T10:51:13.078Z,9.78
2022-08-16T10:52:19.164Z,10.08
2022-08-16T10:53:13.082Z,10.28
2022-08-16T10:54:28.874Z,11.18
2022-08-16T10:55:44.581Z,10.96
2022-08-16T10:56:51.753Z,10.30
2022-08-16T10:57:13.082Z,11.74
2022-08-16T10:58:12.082Z,11.18
2022-08-16T10:59:45.102Z,9.60
2022-08-16T11:00:22.260Z,10.06
2022-08-16T11:01:39.995Z,10.50
2022-08-16T11:02:59.863Z,9.82
2022-08-16T11:03:42.218Z,10.22
2022-08-16T11:05:05.552Z,9.70
2022-08-16T11:05:14.140Z,11.38
2022-08-16T11:06:12.242Z,10.16
2022-08-16T11:08:13.116Z,11.22
2022-08-16T11:09:29.121Z,10.66
2022-08-16T11:10:21.257Z,10.72
2022-08-16T11:11:19.197Z,8.72
2022-08-16T11:12:13.953Z,10.78
2022-08-16T11:14:13.365Z,10.82
2022-08-16T11:15:12.204Z,10.56
2022-08-16T11:16:27.112Z,9.64
2022-08-16T11:17:13.082Z,12.40
2022-08-16T11:19:02.940Z,11.10
2022-08-16T11:19:13.688Z,10.92
2022-08-16T11:20:41.970Z,11.18
2022-08-16T11:21:28.958Z,11.18
2022-08-16T11:22:38.718Z,10.68
2022-08-16T11:23:13.056Z,10.76
2022-08-16T11:24:39.709Z,10.56
2022-08-16T11:25:17.495Z,11.28
2022-08-16T11:26:22.797Z,10.04
2022-08-16T11:27:19.830Z,11.48
2022-08-16T11:28:36.514Z,10.24
2022-08-16T11:29:14.236Z,10.94
2022-08-16T11:30:12.360Z,10.84
2022-08-16T11:31:13.527Z,10.04
2022-08-16T11:32:11.061Z,10.46
2022-08-16T11:33:11.065Z,10.86
2022-08-16T11:34:11.059Z,10.84
2022-08-16T11:35:14.713Z,10.90
2022-08-16T11:36:28.156Z,11.44
2022-08-16T11:37:27.185Z,10.44
2022-08-16T11:38:47.424Z,9.62
2022-08-16T11:39:13.080Z,9.38
2022-08-16T11:40:11.118Z,10.34
2022-08-16T11:41:11.061Z,9.54
2022-08-16T11:42:28.556Z,9.58
2022-08-16T11:43:13.081Z,9.38
2022-08-16T11:44:11.060Z,10.18
2022-08-16T11:45:13.336Z,10.08
2022-08-16T11:46:42.948Z,11.60
2022-08-16T11:47:13.078Z,10.86
2022-08-16T11:48:11.064Z,10.58
2022-08-16T11:49:13.678Z,10.80
2022-08-16T11:50:12.061Z,9.18
2022-08-16T11:51:11.061Z,9.06
2022-08-16T11:52:11.065Z,10.20
2022-08-16T11:53:11.064Z,10.70
2022-08-16T11:54:20.330Z,10.30
2022-08-16T11:55:14.083Z,9.72
2022-08-16T11:56:11.064Z,10.80
2022-08-16T11:57:11.063Z,10.04
2022-08-16T11:58:11.164Z,8.98
2022-08-16T11:59:11.072Z,9.10
2022-08-16T12:00:33.554Z,9.68
2022-08-16T12:01:13.360Z,11.26
2022-08-16T12:02:31.956Z,9.96
2022-08-16T12:03:13.068Z,9.74
2022-08-16T12:04:11.163Z,10.12
2022-08-16T12:05:11.065Z,9.38
2022-08-16T12:06:25.538Z,10.16
2022-08-16T12:07:13.087Z,9.28
2022-08-16T12:08:11.066Z,10.04
2022-08-16T12:09:11.073Z,9.86
2022-08-16T12:10:15.143Z,10.16
2022-08-16T12:11:11.066Z,10.72
2022-08-16T12:12:11.066Z,9.54
2022-08-16T12:13:11.069Z,10.36
2022-08-16T12:14:11.065Z,10.02
2022-08-16T12:15:11.069Z,9.40
2022-08-16T12:16:12.069Z,10.58
2022-08-16T12:17:13.111Z,10.94
2022-08-16T12:18:11.069Z,9.58
2022-08-16T12:19:13.751Z,11.20
2022-08-16T12:20:18.963Z,9.88
2022-08-16T12:21:13.058Z,9.22
2022-08-16T12:22:19.816Z,9.60
2022-08-16T12:23:13.085Z,9.72
2022-08-16T12:24:11.056Z,8.96
2022-08-16T12:25:12.062Z,9.72
2022-08-16T12:26:11.062Z,10.12
2022-08-16T12:27:11.099Z,10.14
2022-08-16T12:28:11.057Z,9.28
2022-08-16T12:29:11.061Z,9.02
2022-08-16T12:30:21.253Z,8.20
2022-08-16T12:31:13.092Z,8.76
2022-08-16T12:32:26.643Z,8.86
2022-08-16T12:33:14.082Z,8.60
2022-08-16T12:34:11.058Z,9.16
2022-08-16T12:35:14.064Z,9.70
2022-08-16T12:36:13.185Z,10.18
2022-08-16T12:37:11.062Z,11.02
2022-08-16T12:38:41.147Z,8.72
2022-08-16T12:39:13.073Z,10.16
2022-08-16T12:40:24.074Z,7.86
2022-08-16T12:41:13.126Z,9.02
2022-08-16T12:42:13.063Z,9.56
2022-08-16T12:43:12.064Z,9.02
2022-08-16T12:44:11.063Z,9.56
2022-08-16T12:45:16.077Z,10.26
2022-08-16T12:46:11.059Z,10.42
2022-08-16T12:47:15.074Z,9.60
2022-08-16T12:49:13.072Z,9.74
2022-08-16T12:50:14.885Z,8.92
2022-08-16T12:51:19.967Z,8.92
2022-08-16T12:52:32.588Z,9.22
2022-08-16T12:53:13.079Z,9.38
2022-08-16T12:54:11.067Z,9.24
2022-08-16T12:55:11.072Z,9.86
2022-08-16T12:56:11.067Z,8.94
2022-08-16T12:57:14.006Z,9.10
2022-08-16T12:58:13.818Z,8.48
2022-08-16T12:59:18.117Z,8.10
2022-08-16T13:00:26.738Z,8.90
2022-08-16T13:01:13.105Z,9.00
2022-08-16T13:02:12.698Z,9.10
2022-08-16T13:03:13.086Z,9.52
2022-08-16T13:04:19.735Z,8.86